This is the latest recevied weather packets stored in our database for station/object VK3BKO-13. If no packets are shown the sender has not sent any weather packets the latest 10 day(s).
| Time | Temp. | Humidity | Pressure | Rain* | Wind** | Luminosity | Snow |
|---|---|---|---|---|---|---|---|
| 1777952823 | 16.11° C | 65% | 1019.3 hPa | 0 mm | - | 120 W/m² | - |
| 1777951924 | 16.11° C | 64% | 1019.7 hPa | 0 mm | - | 112 W/m² | - |
| 1777951024 | 16.67° C | 62% | 1019.7 hPa | 0 mm | - | 274 W/m² | - |
| 1777950124 | 17.22° C | 63% | 1019.7 hPa | 0 mm | - | 230 W/m² | - |
| 1777949224 | 17.22° C | 64% | 1019.7 hPa | 0 mm | - | 490 W/m² | - |
| 1777948324 | 15.56° C | 68% | 1019.7 hPa | 0 mm | - | 239 W/m² | - |
| 1777947424 | 15.56° C | 66% | 1019.7 hPa | 0 mm | - | 198 W/m² | - |
| 1777946524 | 15.56° C | 66% | 1019.7 hPa | 0 mm | - | 255 W/m² | - |
| 1777945624 | 15.56° C | 68% | 1020 hPa | 0 mm | - | 187 W/m² | - |
| 1777944724 | 15.56° C | 68% | 1019.7 hPa | 0 mm | - | 162 W/m² | - |
| 1777943823 | 15° C | 70% | 1020 hPa | 0 mm | - | 202 W/m² | - |
| 1777942923 | 15° C | 72% | 1020 hPa | 0 mm | - | 210 W/m² | - |
| 1777942024 | 15° C | 72% | 1020 hPa | 0 mm | - | 139 W/m² | - |
| 1777941124 | 15° C | 73% | 1019.7 hPa | 0 mm | - | 138 W/m² | - |
| 1777940224 | 15° C | 73% | 1019.3 hPa | 0 mm | - | 141 W/m² | - |
| 1777939324 | 14.44° C | 74% | 1019.3 hPa | 0 mm | - | 179 W/m² | - |
| 1777938424 | 14.44° C | 75% | 1019 hPa | 0 mm | - | 154 W/m² | - |
| 1777937523 | 13.89° C | 77% | 1019 hPa | 0 mm | - | 130 W/m² | - |
| 1777936623 | 14.44° C | 76% | 1019 hPa | 0 mm | - | 58 W/m² | - |
| 1777935723 | 14.44° C | 77% | 1018.7 hPa | 0 mm | - | 86 W/m² | - |
| 1777934824 | 13.89° C | 78% | 1018.7 hPa | 0 mm | - | 94 W/m² | - |
| 1777933982 | 14.44° C | 78% | 1018.3 hPa | 0 mm | - | 57 W/m² | - |
| 1777933024 | 13.33° C | 80% | 1018 hPa | 0 mm | - | 104 W/m² | - |
| 1777932123 | 13.89° C | 80% | 1017.6 hPa | 0 mm | - | 29 W/m² | - |
| 1777931224 | 13.89° C | 81% | 1017.6 hPa | 0 mm | - | 31 W/m² | - |
* Rain latest hour (hover to see other rain measurements)
** Current wind speed in m/s (hover to see current wind gust speed)